Terminal Aerodrome Forecast
Issued by NWS Duluth, MN

Home | Current Version | Previous Version | Text Only | Print | Product List | Glossary On
Versions: 1 2 3 4 5 6 7 8 9 10 11 12 13 14 15 16 17 18 19 20 21 22 23 24 25
000
FTUS43 KDLH 252300
TAFDLH
TAF
KDLH 252327Z 2600/2624 29007KT P6SM -SN OVC013
     FM260800 34006KT 6SM -SN BKN009 OVC030
     FM261300 35008KT P6SM -SN OVC016
     FM261900 33006KT P6SM -FZDZ OVC012=

USA.gov is the U.S. government's official web portal to all federal, state and local government web resources and services.